sensor_id;sensor_type;location;lat;lon;timestamp;pressure;altitude;pressure_sealevel;temperature;humidity
19259;BME280;9763;48.780;9.212;2023-04-26T00:01:51;98447.56;;;11.69;77.11
19259;BME280;9763;48.780;9.212;2023-04-26T00:05:16;98447.03;;;11.64;76.68
19259;BME280;9763;48.780;9.212;2023-04-26T00:08:41;98447.66;;;11.55;76.71
19259;BME280;9763;48.780;9.212;2023-04-26T00:12:06;98451.53;;;11.49;76.94
19259;BME280;9763;48.780;9.212;2023-04-26T00:15:31;98451.84;;;11.45;77.13
19259;BME280;9763;48.780;9.212;2023-04-26T00:18:55;98459.06;;;11.41;77.18
19259;BME280;9763;48.780;9.212;2023-04-26T00:22:19;98450.81;;;11.35;76.87
19259;BME280;9763;48.780;9.212;2023-04-26T00:25:43;98456.31;;;11.30;76.95
19259;BME280;9763;48.780;9.212;2023-04-26T00:29:07;98459.25;;;11.26;77.41
19259;BME280;9763;48.780;9.212;2023-04-26T00:32:32;98449.03;;;11.23;77.52
19259;BME280;9763;48.780;9.212;2023-04-26T00:35:56;98456.13;;;11.21;77.32
19259;BME280;9763;48.780;9.212;2023-04-26T00:39:20;98453.78;;;11.16;76.93
19259;BME280;9763;48.780;9.212;2023-04-26T00:42:44;98450.88;;;11.08;77.17
19259;BME280;9763;48.780;9.212;2023-04-26T00:46:08;98449.69;;;10.99;76.99
19259;BME280;9763;48.780;9.212;2023-04-26T00:49:34;98452.81;;;10.92;77.19
19259;BME280;9763;48.780;9.212;2023-04-26T00:52:58;98450.38;;;10.89;76.98
19259;BME280;9763;48.780;9.212;2023-04-26T00:56:24;98458.13;;;10.90;77.14
19259;BME280;9763;48.780;9.212;2023-04-26T00:59:48;98458.13;;;10.90;77.34
19259;BME280;9763;48.780;9.212;2023-04-26T01:03:12;98456.44;;;10.89;77.51
19259;BME280;9763;48.780;9.212;2023-04-26T01:06:38;98456.53;;;10.88;76.90
19259;BME280;9763;48.780;9.212;2023-04-26T01:10:03;98460.22;;;10.85;77.13
19259;BME280;9763;48.780;9.212;2023-04-26T01:13:28;98476.06;;;10.82;77.00
19259;BME280;9763;48.780;9.212;2023-04-26T01:16:55;98475.44;;;10.78;77.55
19259;BME280;9763;48.780;9.212;2023-04-26T01:20:18;98470.13;;;10.80;77.28
19259;BME280;9763;48.780;9.212;2023-04-26T01:23:44;98471.78;;;10.81;77.74
19259;BME280;9763;48.780;9.212;2023-04-26T01:27:08;98467.41;;;10.81;77.57
19259;BME280;9763;48.780;9.212;2023-04-26T01:30:32;98460.31;;;10.83;77.68
19259;BME280;9763;48.780;9.212;2023-04-26T01:33:58;98462.94;;;10.83;77.23
19259;BME280;9763;48.780;9.212;2023-04-26T01:37:22;98459.47;;;10.83;77.05
19259;BME280;9763;48.780;9.212;2023-04-26T01:40:47;98460.50;;;10.80;77.17
19259;BME280;9763;48.780;9.212;2023-04-26T01:44:11;98460.59;;;10.79;76.88
19259;BME280;9763;48.780;9.212;2023-04-26T01:47:35;98460.91;;;10.74;77.05
19259;BME280;9763;48.780;9.212;2023-04-26T01:50:59;98463.16;;;10.66;77.14
19259;BME280;9763;48.780;9.212;2023-04-26T01:54:23;98466.38;;;10.57;76.68
19259;BME280;9763;48.780;9.212;2023-04-26T01:57:49;98466.13;;;10.48;76.84
19259;BME280;9763;48.780;9.212;2023-04-26T02:01:13;98464.13;;;10.38;77.04
19259;BME280;9763;48.780;9.212;2023-04-26T02:04:39;98468.13;;;10.30;77.08
19259;BME280;9763;48.780;9.212;2023-04-26T02:08:04;98469.44;;;10.23;76.93
19259;BME280;9763;48.780;9.212;2023-04-26T02:11:28;98457.59;;;10.17;77.09
19259;BME280;9763;48.780;9.212;2023-04-26T02:14:56;98455.06;;;10.16;77.32
19259;BME280;9763;48.780;9.212;2023-04-26T02:18:20;98456.00;;;10.15;77.06
19259;BME280;9763;48.780;9.212;2023-04-26T02:21:53;98448.09;;;10.16;77.07
19259;BME280;9763;48.780;9.212;2023-04-26T02:25:17;98452.59;;;10.14;76.82
19259;BME280;9763;48.780;9.212;2023-04-26T02:28:42;98450.06;;;10.13;76.60
19259;BME280;9763;48.780;9.212;2023-04-26T02:32:07;98458.06;;;10.09;76.77
19259;BME280;9763;48.780;9.212;2023-04-26T02:35:31;98452.19;;;10.06;77.02
19259;BME280;9763;48.780;9.212;2023-04-26T02:38:55;98467.00;;;10.05;76.58
19259;BME280;9763;48.780;9.212;2023-04-26T02:42:19;98464.41;;;10.05;76.84
19259;BME280;9763;48.780;9.212;2023-04-26T02:45:43;98465.41;;;10.03;76.64
19259;BME280;9763;48.780;9.212;2023-04-26T02:49:09;98438.06;;;9.82;76.74
19259;BME280;9763;48.780;9.212;2023-04-26T02:52:33;98469.25;;;9.97;76.14
19259;BME280;9763;48.780;9.212;2023-04-26T02:55:59;98468.25;;;10.00;76.86
19259;BME280;9763;48.780;9.212;2023-04-26T02:59:24;98464.72;;;10.01;76.74
19259;BME280;9763;48.780;9.212;2023-04-26T03:02:47;98464.50;;;10.04;76.51
19259;BME280;9763;48.780;9.212;2023-04-26T03:06:14;98462.72;;;10.04;76.76
19259;BME280;9763;48.780;9.212;2023-04-26T03:09:37;98464.31;;;10.07;76.54
19259;BME280;9763;48.780;9.212;2023-04-26T03:13:02;98471.19;;;10.08;76.77
19259;BME280;9763;48.780;9.212;2023-04-26T03:16:27;98464.41;;;10.05;76.70
19259;BME280;9763;48.780;9.212;2023-04-26T03:19:51;98472.41;;;10.02;76.75
19259;BME280;9763;48.780;9.212;2023-04-26T03:23:16;98463.13;;;9.98;76.82
19259;BME280;9763;48.780;9.212;2023-04-26T03:26:40;98471.88;;;9.97;76.32
19259;BME280;9763;48.780;9.212;2023-04-26T03:30:05;98476.25;;;9.97;76.17
19259;BME280;9763;48.780;9.212;2023-04-26T03:33:31;98479.13;;;9.92;76.12
19259;BME280;9763;48.780;9.212;2023-04-26T03:36:55;98478.50;;;9.89;76.18
19259;BME280;9763;48.780;9.212;2023-04-26T03:40:20;98472.78;;;9.82;76.28
19259;BME280;9763;48.780;9.212;2023-04-26T03:43:44;98472.34;;;9.75;76.06
19259;BME280;9763;48.780;9.212;2023-04-26T03:47:08;98466.75;;;9.67;76.33
19259;BME280;9763;48.780;9.212;2023-04-26T03:50:32;98457.06;;;9.55;75.79
19259;BME280;9763;48.780;9.212;2023-04-26T03:53:56;98460.13;;;9.48;76.05
19259;BME280;9763;48.780;9.212;2023-04-26T03:57:22;98467.56;;;9.39;75.95
19259;BME280;9763;48.780;9.212;2023-04-26T04:00:45;98472.28;;;9.33;76.15
19259;BME280;9763;48.780;9.212;2023-04-26T04:04:10;98470.06;;;9.27;76.21
19259;BME280;9763;48.780;9.212;2023-04-26T04:07:35;98471.53;;;9.17;75.70
19259;BME280;9763;48.780;9.212;2023-04-26T04:10:59;98469.44;;;9.08;75.88
19259;BME280;9763;48.780;9.212;2023-04-26T04:14:26;98467.28;;;9.00;75.81
19259;BME280;9763;48.780;9.212;2023-04-26T04:17:50;98469.31;;;8.95;75.84
19259;BME280;9763;48.780;9.212;2023-04-26T04:21:14;98475.56;;;8.92;76.08
19259;BME280;9763;48.780;9.212;2023-04-26T04:24:38;98475.72;;;8.89;76.44
19259;BME280;9763;48.780;9.212;2023-04-26T04:28:04;98468.84;;;8.88;76.32
19259;BME280;9763;48.780;9.212;2023-04-26T04:31:29;98477.41;;;8.90;76.63
19259;BME280;9763;48.780;9.212;2023-04-26T04:34:53;98478.88;;;8.94;76.65
19259;BME280;9763;48.780;9.212;2023-04-26T04:38:18;98477.69;;;9.00;76.75
19259;BME280;9763;48.780;9.212;2023-04-26T04:41:42;98478.09;;;9.08;77.25
19259;BME280;9763;48.780;9.212;2023-04-26T04:45:11;98479.16;;;9.20;77.28
19259;BME280;9763;48.780;9.212;2023-04-26T04:48:38;98472.78;;;9.39;77.98
19259;BME280;9763;48.780;9.212;2023-04-26T04:52:01;98446.81;;;9.38;78.17
19259;BME280;9763;48.780;9.212;2023-04-26T04:55:25;98485.16;;;9.79;78.97
19259;BME280;9763;48.780;9.212;2023-04-26T04:58:49;98490.31;;;9.94;78.44
19259;BME280;9763;48.780;9.212;2023-04-26T05:02:16;98496.25;;;10.10;78.14
19259;BME280;9763;48.780;9.212;2023-04-26T05:05:41;98500.16;;;10.32;78.85
19259;BME280;9763;48.780;9.212;2023-04-26T05:09:05;98496.84;;;10.57;78.90
19259;BME280;9763;48.780;9.212;2023-04-26T05:12:30;98510.34;;;10.90;79.52
19259;BME280;9763;48.780;9.212;2023-04-26T05:15:55;98500.97;;;11.40;81.09
19259;BME280;9763;48.780;9.212;2023-04-26T05:19:19;98506.03;;;11.68;79.92
19259;BME280;9763;48.780;9.212;2023-04-26T05:22:46;98499.56;;;11.86;79.21
19259;BME280;9763;48.780;9.212;2023-04-26T05:26:16;98495.69;;;12.05;79.38
19259;BME280;9763;48.780;9.212;2023-04-26T05:29:40;98510.13;;;12.47;80.59
19259;BME280;9763;48.780;9.212;2023-04-26T05:33:20;98516.97;;;13.21;82.84
19259;BME280;9763;48.780;9.212;2023-04-26T05:36:50;98513.78;;;13.63;82.38
19259;BME280;9763;48.780;9.212;2023-04-26T05:40:15;98516.44;;;14.30;84.53
19259;BME280;9763;48.780;9.212;2023-04-26T05:43:40;98522.63;;;15.17;85.64
19259;BME280;9763;48.780;9.212;2023-04-26T05:47:04;98513.66;;;16.03;84.99
19259;BME280;9763;48.780;9.212;2023-04-26T05:50:28;98514.25;;;16.86;84.22
19259;BME280;9763;48.780;9.212;2023-04-26T05:53:51;98519.41;;;17.75;83.63
19259;BME280;9763;48.780;9.212;2023-04-26T05:57:18;98516.28;;;18.63;82.01
19259;BME280;9763;48.780;9.212;2023-04-26T06:00:42;98518.84;;;19.35;79.32
19259;BME280;9763;48.780;9.212;2023-04-26T06:04:06;98514.78;;;20.10;78.34
19259;BME280;9763;48.780;9.212;2023-04-26T06:07:41;98513.59;;;20.73;77.02
19259;BME280;9763;48.780;9.212;2023-04-26T06:11:05;98510.44;;;21.36;75.27
19259;BME280;9763;48.780;9.212;2023-04-26T06:14:31;98512.56;;;21.97;73.85
19259;BME280;9763;48.780;9.212;2023-04-26T06:17:59;98514.91;;;22.55;72.82
19259;BME280;9763;48.780;9.212;2023-04-26T06:21:23;98520.44;;;23.08;71.36
19259;BME280;9763;48.780;9.212;2023-04-26T06:24:48;98523.56;;;23.42;69.27
19259;BME280;9763;48.780;9.212;2023-04-26T06:28:12;98517.25;;;23.66;67.87
19259;BME280;9763;48.780;9.212;2023-04-26T06:31:37;98515.56;;;24.02;67.15
19259;BME280;9763;48.780;9.212;2023-04-26T06:35:01;98513.66;;;24.26;66.69
19259;BME280;9763;48.780;9.212;2023-04-26T06:38:25;98524.38;;;24.76;67.26
19259;BME280;9763;48.780;9.212;2023-04-26T06:41:49;98524.13;;;25.43;66.81
19259;BME280;9763;48.780;9.212;2023-04-26T06:45:21;98519.97;;;25.62;65.41
19259;BME280;9763;48.780;9.212;2023-04-26T06:48:48;98530.09;;;25.67;64.99
19259;BME280;9763;48.780;9.212;2023-04-26T06:52:12;98517.25;;;25.34;64.17
19259;BME280;9763;48.780;9.212;2023-04-26T06:55:37;98520.81;;;25.84;65.57
19259;BME280;9763;48.780;9.212;2023-04-26T06:59:01;98517.94;;;26.48;65.14
19259;BME280;9763;48.780;9.212;2023-04-26T07:02:25;98519.19;;;26.52;63.17
19259;BME280;9763;48.780;9.212;2023-04-26T07:05:51;98509.56;;;25.95;62.44
19259;BME280;9763;48.780;9.212;2023-04-26T07:09:14;98512.78;;;25.63;63.35
19259;BME280;9763;48.780;9.212;2023-04-26T07:12:38;98509.34;;;25.97;63.78
19259;BME280;9763;48.780;9.212;2023-04-26T07:16:02;98505.88;;;26.65;63.05
19259;BME280;9763;48.780;9.212;2023-04-26T07:19:26;98500.53;;;27.46;63.15
19259;BME280;9763;48.780;9.212;2023-04-26T07:22:51;98497.19;;;28.16;61.80
19259;BME280;9763;48.780;9.212;2023-04-26T07:26:14;98485.72;;;28.67;59.19
19259;BME280;9763;48.780;9.212;2023-04-26T07:29:38;98484.78;;;28.93;58.57
19259;BME280;9763;48.780;9.212;2023-04-26T07:33:02;98496.97;;;28.44;56.75
19259;BME280;9763;48.780;9.212;2023-04-26T07:36:27;98494.97;;;27.67;57.21
19259;BME280;9763;48.780;9.212;2023-04-26T07:39:51;98484.84;;;28.02;59.52
19259;BME280;9763;48.780;9.212;2023-04-26T07:43:15;98476.25;;;28.58;59.12
19259;BME280;9763;48.780;9.212;2023-04-26T07:46:39;98488.25;;;29.38;58.65
19259;BME280;9763;48.780;9.212;2023-04-26T07:50:04;98477.78;;;29.80;58.26
19259;BME280;9763;48.780;9.212;2023-04-26T07:53:28;98484.50;;;30.14;57.63
19259;BME280;9763;48.780;9.212;2023-04-26T07:56:53;98478.69;;;30.17;56.46
19259;BME280;9763;48.780;9.212;2023-04-26T08:00:18;98477.41;;;30.37;55.55
19259;BME280;9763;48.780;9.212;2023-04-26T08:03:43;98480.63;;;30.46;54.68
19259;BME280;9763;48.780;9.212;2023-04-26T08:07:08;98488.34;;;30.06;54.35
19259;BME280;9763;48.780;9.212;2023-04-26T08:10:31;98484.53;;;29.64;55.13
19259;BME280;9763;48.780;9.212;2023-04-26T08:13:57;98476.06;;;29.85;55.55
19259;BME280;9763;48.780;9.212;2023-04-26T08:17:21;98490.63;;;29.21;55.91
19259;BME280;9763;48.780;9.212;2023-04-26T08:20:44;98490.47;;;29.72;56.84
19259;BME280;9763;48.780;9.212;2023-04-26T08:24:08;98493.81;;;29.05;55.62
19259;BME280;9763;48.780;9.212;2023-04-26T08:27:32;98493.81;;;28.54;56.91
19259;BME280;9763;48.780;9.212;2023-04-26T08:30:58;98498.69;;;27.79;55.85
19259;BME280;9763;48.780;9.212;2023-04-26T08:34:22;98502.81;;;26.75;56.27
19259;BME280;9763;48.780;9.212;2023-04-26T08:37:46;98503.41;;;25.73;57.75
19259;BME280;9763;48.780;9.212;2023-04-26T08:41:12;98499.78;;;24.96;59.29
19259;BME280;9763;48.780;9.212;2023-04-26T08:44:37;98502.91;;;24.34;59.54
19259;BME280;9763;48.780;9.212;2023-04-26T08:48:08;98503.59;;;23.61;59.55
19259;BME280;9763;48.780;9.212;2023-04-26T08:51:36;98505.97;;;23.56;61.12
19259;BME280;9763;48.780;9.212;2023-04-26T08:55:00;98504.94;;;23.80;62.08
19259;BME280;9763;48.780;9.212;2023-04-26T08:58:26;98496.00;;;23.73;61.95
19259;BME280;9763;48.780;9.212;2023-04-26T09:01:50;98508.38;;;23.20;61.43
19259;BME280;9763;48.780;9.212;2023-04-26T09:05:17;98506.34;;;22.68;61.83
19259;BME280;9763;48.780;9.212;2023-04-26T09:08:45;98510.22;;;22.96;62.47
19259;BME280;9763;48.780;9.212;2023-04-26T09:12:09;98503.00;;;23.74;61.16
19259;BME280;9763;48.780;9.212;2023-04-26T09:15:33;98504.41;;;23.84;60.23
19259;BME280;9763;48.780;9.212;2023-04-26T09:18:58;98507.44;;;23.35;59.79
19259;BME280;9763;48.780;9.212;2023-04-26T09:22:30;98504.69;;;22.67;59.84
19259;BME280;9763;48.780;9.212;2023-04-26T09:25:55;98511.00;;;22.27;61.41
19259;BME280;9763;48.780;9.212;2023-04-26T09:29:18;98504.44;;;21.74;63.45
19259;BME280;9763;48.780;9.212;2023-04-26T09:32:46;98495.34;;;21.36;64.30
19259;BME280;9763;48.780;9.212;2023-04-26T09:36:13;98497.16;;;21.19;64.50
19259;BME280;9763;48.780;9.212;2023-04-26T09:39:40;98492.19;;;21.25;65.19
19259;BME280;9763;48.780;9.212;2023-04-26T09:43:05;98488.19;;;21.45;64.50
19259;BME280;9763;48.780;9.212;2023-04-26T09:46:29;98484.84;;;21.51;64.32
19259;BME280;9763;48.780;9.212;2023-04-26T09:49:53;98490.81;;;21.77;63.68
19259;BME280;9763;48.780;9.212;2023-04-26T09:53:25;98488.00;;;21.79;63.21
19259;BME280;9763;48.780;9.212;2023-04-26T09:57:00;98492.00;;;21.42;63.76
19259;BME280;9763;48.780;9.212;2023-04-26T10:00:26;98487.47;;;21.02;65.01
19259;BME280;9763;48.780;9.212;2023-04-26T10:03:50;98493.47;;;20.54;64.74
19259;BME280;9763;48.780;9.212;2023-04-26T10:07:16;98500.03;;;20.08;64.97
19259;BME280;9763;48.780;9.212;2023-04-26T10:10:41;98489.81;;;19.61;64.33
19259;BME280;9763;48.780;9.212;2023-04-26T10:14:08;98483.69;;;19.25;64.48
19259;BME280;9763;48.780;9.212;2023-04-26T10:17:32;98486.50;;;19.06;64.65
19259;BME280;9763;48.780;9.212;2023-04-26T10:20:58;98480.59;;;19.30;65.88
19259;BME280;9763;48.780;9.212;2023-04-26T10:24:22;98478.22;;;20.14;66.45
19259;BME280;9763;48.780;9.212;2023-04-26T10:27:50;98469.41;;;21.71;63.89
19259;BME280;9763;48.780;9.212;2023-04-26T10:31:15;98467.28;;;22.60;62.74
19259;BME280;9763;48.780;9.212;2023-04-26T10:34:39;98462.66;;;24.06;62.22
19259;BME280;9763;48.780;9.212;2023-04-26T10:38:09;98450.28;;;25.92;60.23
19259;BME280;9763;48.780;9.212;2023-04-26T10:41:35;98456.97;;;26.43;58.60
19259;BME280;9763;48.780;9.212;2023-04-26T10:45:00;98460.13;;;26.26;58.58
19259;BME280;9763;48.780;9.212;2023-04-26T10:48:44;98456.44;;;25.64;57.98
19259;BME280;9763;48.780;9.212;2023-04-26T10:52:13;98456.59;;;24.77;58.62
19259;BME280;9763;48.780;9.212;2023-04-26T10:55:38;98458.69;;;24.17;58.97
19259;BME280;9763;48.780;9.212;2023-04-26T10:59:10;98457.47;;;23.60;59.34
19259;BME280;9763;48.780;9.212;2023-04-26T11:02:56;98458.69;;;23.12;60.29
19259;BME280;9763;48.780;9.212;2023-04-26T11:06:23;98460.44;;;22.97;61.38
19259;BME280;9763;48.780;9.212;2023-04-26T11:09:48;98452.53;;;22.89;61.49
19259;BME280;9763;48.780;9.212;2023-04-26T11:13:12;98442.81;;;22.96;61.71
19259;BME280;9763;48.780;9.212;2023-04-26T11:16:36;98433.00;;;23.57;61.89
19259;BME280;9763;48.780;9.212;2023-04-26T11:20:07;98436.81;;;24.21;61.23
19259;BME280;9763;48.780;9.212;2023-04-26T11:23:33;98434.03;;;24.80;59.93
19259;BME280;9763;48.780;9.212;2023-04-26T11:26:57;98425.25;;;24.65;59.93
19259;BME280;9763;48.780;9.212;2023-04-26T11:30:22;98412.81;;;24.06;60.55
19259;BME280;9763;48.780;9.212;2023-04-26T11:33:45;98415.34;;;23.41;61.97
19259;BME280;9763;48.780;9.212;2023-04-26T11:37:12;98415.25;;;23.12;62.19
19259;BME280;9763;48.780;9.212;2023-04-26T11:40:37;98404.38;;;23.36;62.83
19259;BME280;9763;48.780;9.212;2023-04-26T11:44:01;98399.97;;;24.25;60.31
19259;BME280;9763;48.780;9.212;2023-04-26T11:47:26;98394.31;;;24.34;60.26
19259;BME280;9763;48.780;9.212;2023-04-26T11:50:52;98383.28;;;24.37;59.56
19259;BME280;9763;48.780;9.212;2023-04-26T11:54:28;98380.81;;;24.78;58.65
19259;BME280;9763;48.780;9.212;2023-04-26T11:57:54;98373.28;;;25.87;56.81
19259;BME280;9763;48.780;9.212;2023-04-26T12:01:22;98375.03;;;26.08;55.57
19259;BME280;9763;48.780;9.212;2023-04-26T12:04:46;98368.81;;;25.94;55.70
19259;BME280;9763;48.780;9.212;2023-04-26T12:08:11;98363.44;;;25.32;55.72
19259;BME280;9763;48.780;9.212;2023-04-26T12:11:35;98376.09;;;24.38;56.86
19259;BME280;9763;48.780;9.212;2023-04-26T12:15:00;98371.31;;;23.45;58.48
19259;BME280;9763;48.780;9.212;2023-04-26T12:18:32;98385.38;;;22.79;59.98
19259;BME280;9763;48.780;9.212;2023-04-26T12:21:55;98381.97;;;22.62;61.22
19259;BME280;9763;48.780;9.212;2023-04-26T12:25:19;98377.22;;;23.03;60.68
19259;BME280;9763;48.780;9.212;2023-04-26T12:28:43;98368.53;;;23.76;60.51
19259;BME280;9763;48.780;9.212;2023-04-26T12:32:08;98371.88;;;24.86;58.47
19259;BME280;9763;48.780;9.212;2023-04-26T12:35:33;98335.19;;;24.73;58.21
19259;BME280;9763;48.780;9.212;2023-04-26T12:38:57;98358.47;;;25.01;57.79
19259;BME280;9763;48.780;9.212;2023-04-26T12:42:22;98365.94;;;25.61;57.06
19259;BME280;9763;48.780;9.212;2023-04-26T12:45:46;98355.63;;;25.30;57.01
19259;BME280;9763;48.780;9.212;2023-04-26T12:49:11;98356.28;;;24.47;57.99
19259;BME280;9763;48.780;9.212;2023-04-26T12:52:35;98356.00;;;24.42;58.82
19259;BME280;9763;48.780;9.212;2023-04-26T12:55:59;98346.81;;;24.66;58.17
19259;BME280;9763;48.780;9.212;2023-04-26T12:59:23;98352.66;;;24.76;57.40
19259;BME280;9763;48.780;9.212;2023-04-26T13:02:47;98348.28;;;25.39;56.15
19259;BME280;9763;48.780;9.212;2023-04-26T13:06:13;98350.41;;;25.50;54.97
19259;BME280;9763;48.780;9.212;2023-04-26T13:09:36;98339.44;;;25.66;54.99
19259;BME280;9763;48.780;9.212;2023-04-26T13:13:00;98342.63;;;25.55;55.46
19259;BME280;9763;48.780;9.212;2023-04-26T13:16:24;98322.53;;;25.03;55.95
19259;BME280;9763;48.780;9.212;2023-04-26T13:19:48;98338.84;;;25.15;55.83
19259;BME280;9763;48.780;9.212;2023-04-26T13:23:14;98331.88;;;25.76;55.30
19259;BME280;9763;48.780;9.212;2023-04-26T13:26:37;98335.72;;;26.08;55.05
19259;BME280;9763;48.780;9.212;2023-04-26T13:30:01;98333.47;;;25.64;55.54
19259;BME280;9763;48.780;9.212;2023-04-26T13:33:25;98326.41;;;25.57;55.37
19259;BME280;9763;48.780;9.212;2023-04-26T13:36:49;98324.22;;;26.08;53.86
19259;BME280;9763;48.780;9.212;2023-04-26T13:40:14;98322.91;;;26.71;53.18
19259;BME280;9763;48.780;9.212;2023-04-26T13:43:38;98323.13;;;26.63;52.89
19259;BME280;9763;48.780;9.212;2023-04-26T13:47:02;98332.59;;;25.98;54.28
19259;BME280;9763;48.780;9.212;2023-04-26T13:50:26;98337.09;;;26.39;53.71
19259;BME280;9763;48.780;9.212;2023-04-26T13:53:50;98330.00;;;26.25;53.59
19259;BME280;9763;48.780;9.212;2023-04-26T13:57:15;98334.63;;;25.55;55.77
19259;BME280;9763;48.780;9.212;2023-04-26T14:00:39;98328.06;;;24.81;58.35
19259;BME280;9763;48.780;9.212;2023-04-26T14:04:03;98327.53;;;24.28;59.85
19259;BME280;9763;48.780;9.212;2023-04-26T14:07:28;98325.59;;;23.86;61.32
19259;BME280;9763;48.780;9.212;2023-04-26T14:10:52;98322.56;;;23.59;62.07
19259;BME280;9763;48.780;9.212;2023-04-26T14:14:17;98326.28;;;23.35;63.28
19259;BME280;9763;48.780;9.212;2023-04-26T14:17:41;98321.06;;;23.27;63.88
19259;BME280;9763;48.780;9.212;2023-04-26T14:21:05;98319.84;;;23.15;64.10
19259;BME280;9763;48.780;9.212;2023-04-26T14:24:29;98309.53;;;22.97;64.60
19259;BME280;9763;48.780;9.212;2023-04-26T14:27:52;98308.66;;;22.82;64.52
19259;BME280;9763;48.780;9.212;2023-04-26T14:31:18;98311.97;;;22.61;65.33
19259;BME280;9763;48.780;9.212;2023-04-26T14:34:42;98305.66;;;22.40;65.69
19259;BME280;9763;48.780;9.212;2023-04-26T14:38:06;98313.88;;;22.22;65.77
19259;BME280;9763;48.780;9.212;2023-04-26T14:41:29;98321.97;;;22.06;66.01
19259;BME280;9763;48.780;9.212;2023-04-26T14:44:53;98311.44;;;21.81;64.58
19259;BME280;9763;48.780;9.212;2023-04-26T14:48:19;98318.00;;;21.54;65.19
19259;BME280;9763;48.780;9.212;2023-04-26T14:51:42;98319.09;;;21.37;66.82
19259;BME280;9763;48.780;9.212;2023-04-26T14:55:07;98323.75;;;21.19;66.43
19259;BME280;9763;48.780;9.212;2023-04-26T14:58:31;98316.13;;;21.00;66.87
19259;BME280;9763;48.780;9.212;2023-04-26T15:01:54;98315.97;;;20.77;67.10
19259;BME280;9763;48.780;9.212;2023-04-26T15:05:20;98314.63;;;20.57;67.99
19259;BME280;9763;48.780;9.212;2023-04-26T15:08:45;98313.47;;;20.43;67.93
19259;BME280;9763;48.780;9.212;2023-04-26T15:12:10;98326.84;;;20.33;68.56
19259;BME280;9763;48.780;9.212;2023-04-26T15:15:33;98324.34;;;20.24;68.29
19259;BME280;9763;48.780;9.212;2023-04-26T15:18:58;98324.97;;;20.18;67.28
19259;BME280;9763;48.780;9.212;2023-04-26T15:22:23;98317.34;;;20.06;68.02
19259;BME280;9763;48.780;9.212;2023-04-26T15:25:47;98317.31;;;19.90;68.21
19259;BME280;9763;48.780;9.212;2023-04-26T15:29:11;98316.25;;;19.75;68.60
19259;BME280;9763;48.780;9.212;2023-04-26T15:32:35;98307.41;;;19.58;69.11
19259;BME280;9763;48.780;9.212;2023-04-26T15:35:59;98299.84;;;19.46;69.38
19259;BME280;9763;48.780;9.212;2023-04-26T15:39:24;98303.16;;;19.39;69.46
19259;BME280;9763;48.780;9.212;2023-04-26T15:42:48;98307.31;;;19.42;70.14
19259;BME280;9763;48.780;9.212;2023-04-26T15:46:13;98305.97;;;19.46;69.90
19259;BME280;9763;48.780;9.212;2023-04-26T15:49:37;98299.84;;;19.46;69.96
19259;BME280;9763;48.780;9.212;2023-04-26T15:53:00;98297.88;;;19.39;69.80
19259;BME280;9763;48.780;9.212;2023-04-26T15:56:25;98310.22;;;19.31;70.05
19259;BME280;9763;48.780;9.212;2023-04-26T15:59:48;98312.31;;;19.19;70.29
19259;BME280;9763;48.780;9.212;2023-04-26T16:03:12;98303.81;;;19.08;70.65
19259;BME280;9763;48.780;9.212;2023-04-26T16:06:36;98296.78;;;18.98;70.14
19259;BME280;9763;48.780;9.212;2023-04-26T16:09:59;98310.63;;;18.92;70.22
19259;BME280;9763;48.780;9.212;2023-04-26T16:13:24;98302.13;;;18.81;70.43
19259;BME280;9763;48.780;9.212;2023-04-26T16:16:48;98301.00;;;18.65;70.39
19259;BME280;9763;48.780;9.212;2023-04-26T16:20:12;98306.94;;;18.50;71.02
19259;BME280;9763;48.780;9.212;2023-04-26T16:23:36;98305.38;;;18.39;71.43
19259;BME280;9763;48.780;9.212;2023-04-26T16:27:00;98306.44;;;18.28;71.85
19259;BME280;9763;48.780;9.212;2023-04-26T16:30:25;98307.69;;;18.24;72.07
19259;BME280;9763;48.780;9.212;2023-04-26T16:33:49;98307.88;;;18.23;71.58
19259;BME280;9763;48.780;9.212;2023-04-26T16:37:13;98307.88;;;18.23;71.77
19259;BME280;9763;48.780;9.212;2023-04-26T16:40:37;98309.50;;;18.24;71.01
19259;BME280;9763;48.780;9.212;2023-04-26T16:44:01;98313.31;;;18.21;71.08
19259;BME280;9763;48.780;9.212;2023-04-26T16:47:26;98304.63;;;18.11;71.26
19259;BME280;9763;48.780;9.212;2023-04-26T16:50:49;98310.56;;;17.95;71.13
19259;BME280;9763;48.780;9.212;2023-04-26T16:54:13;98305.78;;;17.81;70.61
19259;BME280;9763;48.780;9.212;2023-04-26T16:57:37;98317.66;;;17.68;71.04
19259;BME280;9763;48.780;9.212;2023-04-26T17:01:00;98306.28;;;17.57;71.46
19259;BME280;9763;48.780;9.212;2023-04-26T17:04:25;98301.19;;;17.46;71.44
19259;BME280;9763;48.780;9.212;2023-04-26T17:07:50;98308.31;;;17.36;71.58
19259;BME280;9763;48.780;9.212;2023-04-26T17:11:14;98315.44;;;17.26;72.49
19259;BME280;9763;48.780;9.212;2023-04-26T17:14:38;98313.78;;;17.15;72.62
19259;BME280;9763;48.780;9.212;2023-04-26T17:18:03;98326.72;;;17.09;72.17
19259;BME280;9763;48.780;9.212;2023-04-26T17:21:29;98329.91;;;17.03;72.46
19259;BME280;9763;48.780;9.212;2023-04-26T17:24:53;98327.03;;;16.96;72.50
19259;BME280;9763;48.780;9.212;2023-04-26T17:28:17;98336.31;;;16.90;73.08
19259;BME280;9763;48.780;9.212;2023-04-26T17:31:41;98320.66;;;16.79;72.54
19259;BME280;9763;48.780;9.212;2023-04-26T17:35:06;98335.38;;;16.82;72.57
19259;BME280;9763;48.780;9.212;2023-04-26T17:38:31;98340.25;;;16.77;72.81
19259;BME280;9763;48.780;9.212;2023-04-26T17:41:55;98334.00;;;16.68;72.34
19259;BME280;9763;48.780;9.212;2023-04-26T17:45:18;98337.19;;;16.62;72.17
19259;BME280;9763;48.780;9.212;2023-04-26T17:48:42;98340.06;;;16.59;72.37
19259;BME280;9763;48.780;9.212;2023-04-26T17:52:06;98342.31;;;16.54;71.95
19259;BME280;9763;48.780;9.212;2023-04-26T17:55:31;98350.63;;;16.49;71.83
19259;BME280;9763;48.780;9.212;2023-04-26T17:58:55;98352.97;;;16.43;72.41
19259;BME280;9763;48.780;9.212;2023-04-26T18:02:19;98355.19;;;16.38;71.85
19259;BME280;9763;48.780;9.212;2023-04-26T18:05:43;98361.81;;;16.32;72.01
19259;BME280;9763;48.780;9.212;2023-04-26T18:09:07;98359.06;;;16.24;72.18
19259;BME280;9763;48.780;9.212;2023-04-26T18:12:33;98360.00;;;16.13;72.02
19259;BME280;9763;48.780;9.212;2023-04-26T18:15:57;98359.16;;;16.03;71.94
19259;BME280;9763;48.780;9.212;2023-04-26T18:19:22;98363.56;;;15.93;71.86
19259;BME280;9763;48.780;9.212;2023-04-26T18:22:45;98372.25;;;15.84;71.35